Terminal Aerodrome Forecast
Issued by NWS

Home | Current Version | Previous Version | Text Only | Print | Product List | Glossary On
Versions: 1 2 3 4 5 6 7 8 9 10 11 12 13 14 15
000
FTUS42 KMLB 031749
TAFFPR
TAF
KFPR 031749Z 0318/0418 26011G20KT P6SM VCSH SCT040 SCT050 OVC120
     FM032300 22003KT P6SM OVC120
     FM041400 18006KT P6SM SCT030 SCT100 OVC250=

USA.gov is the U.S. government's official web portal to all federal, state and local government web resources and services.